Time;durP1;ratioP1;P1;durP2;ratioP2;P2;SDS_P1;SDS_P2;PMS_P1;PMS_P2;Temp;Humidity;BMP_temperature;BMP_pressure;BME280_temperature;BME280_humidity;BME280_pressure;Samples;Min_cycle;Max_cycle;Signal;HPM_P1;HPM_P2
2022/10/14 00:00:53;;;;;;;;;;;28.50;99.90;;;;;;5032626;28;19948;-57
2022/10/14 00:03:18;;;;;;;;;;;28.50;99.90;;;;;;5032216;28;19909;-58
2022/10/14 00:05:44;;;;;;;;;;;28.50;99.90;;;;;;5032770;28;19915;-56
2022/10/14 00:08:09;;;;;;;;;;;28.50;99.90;;;;;;5032230;28;19963;-57
2022/10/14 00:10:36;;;;;;;;;;;28.40;99.90;;;;;;5032379;28;19912;-57
2022/10/14 00:13:01;;;;;;;;;;;28.40;99.90;;;;;;5032105;28;19959;-56
2022/10/14 00:15:27;;;;;;;;;;;28.40;99.90;;;;;;5032013;28;19913;-56
2022/10/14 00:17:53;;;;;;;;;;;28.40;99.90;;;;;;5031978;28;20342;-57
2022/10/14 00:20:18;;;;;;;;;;;28.40;99.90;;;;;;5030650;28;19909;-56
2022/10/14 00:22:44;;;;;;;;;;;28.40;99.90;;;;;;5031860;28;19901;-60
2022/10/14 00:25:09;;;;;;;;;;;28.40;99.90;;;;;;5031787;28;19945;-59
2022/10/14 00:27:35;;;;;;;;;;;28.30;99.90;;;;;;5032011;28;19988;-59
2022/10/14 00:30:00;;;;;;;;;;;28.30;99.90;;;;;;5031825;28;20341;-58
2022/10/14 00:32:26;;;;;;;;;;;28.30;99.90;;;;;;5031915;28;19944;-58
2022/10/14 00:34:52;;;;;;;;;;;28.30;99.90;;;;;;5031665;28;19912;-55
2022/10/14 00:37:17;;;;;;;;;;;28.30;99.90;;;;;;5031763;28;20052;-57
2022/10/14 00:39:43;;;;;;;;;;;28.30;99.90;;;;;;5031659;28;19911;-58
2022/10/14 00:42:11;;;;;;;;;;;28.20;99.90;;;;;;5031501;28;19909;-57
2022/10/14 00:44:43;;;;;;;;;;;28.30;99.90;;;;;;5030623;28;19944;-56
2022/10/14 00:47:09;;;;;;;;;;;28.20;99.90;;;;;;5031874;28;19909;-57
2022/10/14 00:49:37;;;;;;;;;;;28.20;99.90;;;;;;5031638;28;20272;-57
2022/10/14 00:52:05;;;;;;;;;;;28.20;99.90;;;;;;5031593;28;19912;-57
2022/10/14 00:54:38;;;;;;;;;;;28.20;99.90;;;;;;5031529;28;19909;-58
2022/10/14 00:57:04;;;;;;;;;;;28.20;99.90;;;;;;5031493;28;20019;-57
2022/10/14 00:59:31;;;;;;;;;;;28.10;99.90;;;;;;5043637;22;19921;-50
2022/10/14 01:01:57;;;;;;;;;;;28.10;99.90;;;;;;5031405;28;19924;-50
2022/10/14 01:04:22;;;;;;;;;;;28.10;99.90;;;;;;5031413;28;19905;-50
2022/10/14 01:06:51;;;;;;;;;;;28.10;99.90;;;;;;5031419;28;19911;-50
2022/10/14 01:09:28;;;;;;;;;;;28.10;99.90;;;;;;5031311;28;20280;-50
2022/10/14 01:12:02;;;;;;;;;;;28.10;99.90;;;;;;5031316;28;20276;-51
2022/10/14 01:14:33;;;;;;;;;;;28.00;99.90;;;;;;5031475;28;19995;-50
2022/10/14 01:17:19;;;;;;;;;;;28.10;99.90;;;;;;5031203;28;19939;-51
2022/10/14 01:19:48;;;;;;;;;;;28.00;99.90;;;;;;5027136;28;20266;-51
2022/10/14 01:22:17;;;;;;;;;;;28.00;99.90;;;;;;5031245;28;19915;-51
2022/10/14 01:24:49;;;;;;;;;;;28.00;99.90;;;;;;5031105;28;20007;-51
2022/10/14 01:27:30;;;;;;;;;;;28.00;99.90;;;;;;5031137;28;19992;-51
2022/10/14 01:30:08;;;;;;;;;;;28.00;99.90;;;;;;5031133;28;19905;-51
2022/10/14 01:32:33;;;;;;;;;;;28.00;99.90;;;;;;5031168;28;19909;-51
2022/10/14 01:35:17;;;;;;;;;;;28.00;99.90;;;;;;5030960;28;20262;-49
2022/10/14 01:37:47;;;;;;;;;;;27.90;99.90;;;;;;5031141;28;20325;-50
2022/10/14 01:40:20;;;;;;;;;;;27.90;99.90;;;;;;5031182;28;19905;-51
2022/10/14 01:42:46;;;;;;;;;;;27.90;99.90;;;;;;5031079;28;19979;-51
2022/10/14 01:45:14;;;;;;;;;;;27.90;99.90;;;;;;5031173;28;19905;-50
2022/10/14 01:47:40;;;;;;;;;;;27.90;99.90;;;;;;5031023;28;19905;-51
2022/10/14 01:50:25;;;;;;;;;;;27.90;99.90;;;;;;5030923;28;20423;-50
2022/10/14 01:52:54;;;;;;;;;;;27.90;99.90;;;;;;5031565;28;20261;-51
2022/10/14 01:55:22;;;;;;;;;;;27.90;99.90;;;;;;5034545;28;19955;-51
2022/10/14 01:57:50;;;;;;;;;;;27.80;99.90;;;;;;5034488;28;19913;-51
2022/10/14 02:00:15;;;;;;;;;;;27.90;99.90;;;;;;5034804;28;19956;-51
2022/10/14 02:02:41;;;;;;;;;;;27.80;99.90;;;;;;5034640;28;19953;-51
2022/10/14 02:05:19;;;;;;;;;;;27.80;99.90;;;;;;5034284;28;19905;-51
2022/10/14 02:07:47;;;;;;;;;;;27.80;99.90;;;;;;5034157;28;19905;-51
2022/10/14 02:10:31;;;;;;;;;;;27.80;99.90;;;;;;5034472;28;20000;-51
2022/10/14 02:13:03;;;;;;;;;;;27.80;99.90;;;;;;5049410;28;20230;-51
2022/10/14 02:15:32;;;;;;;;;;;27.80;99.90;;;;;;5034116;28;19909;-51
2022/10/14 02:18:20;;;;;;;;;;;27.80;99.90;;;;;;5033996;28;19909;-51
2022/10/14 02:20:58;;;;;;;;;;;27.70;99.90;;;;;;5033924;28;19931;-51
2022/10/14 02:23:31;;;;;;;;;;;27.70;99.90;;;;;;5033973;28;19905;-51
2022/10/14 02:25:58;;;;;;;;;;;27.70;99.90;;;;;;5033747;28;19905;-51
2022/10/14 02:28:26;;;;;;;;;;;27.70;99.90;;;;;;5033829;28;19908;-50
2022/10/14 02:31:01;;;;;;;;;;;27.70;99.90;;;;;;5033894;28;19912;-51
2022/10/14 02:33:32;;;;;;;;;;;27.70;99.90;;;;;;5033789;28;20327;-50
2022/10/14 02:35:59;;;;;;;;;;;27.70;99.90;;;;;;5032437;28;19917;-50
2022/10/14 02:38:25;;;;;;;;;;;27.70;99.90;;;;;;5033664;28;19995;-51
2022/10/14 02:40:51;;;;;;;;;;;27.60;99.90;;;;;;5049049;28;19959;-51
2022/10/14 02:43:17;;;;;;;;;;;27.60;99.90;;;;;;5033670;28;20476;-50
2022/10/14 02:45:43;;;;;;;;;;;27.60;99.90;;;;;;5033753;28;19948;-51
2022/10/14 02:48:08;;;;;;;;;;;27.60;99.90;;;;;;5033562;28;19956;-51
2022/10/14 02:50:34;;;;;;;;;;;27.60;99.90;;;;;;5033503;28;19912;-50
2022/10/14 02:53:00;;;;;;;;;;;27.60;99.90;;;;;;5033674;28;19905;-51
2022/10/14 02:55:26;;;;;;;;;;;27.60;99.90;;;;;;5033463;28;20035;-51
2022/10/14 02:57:51;;;;;;;;;;;27.60;99.90;;;;;;5033290;28;19999;-51
2022/10/14 03:00:17;;;;;;;;;;;27.60;99.90;;;;;;5033910;28;19917;-50
2022/10/14 03:02:42;;;;;;;;;;;27.50;99.90;;;;;;5033475;28;19943;-51
2022/10/14 03:05:08;;;;;;;;;;;27.50;99.90;;;;;;5032806;28;19905;-51
2022/10/14 03:07:34;;;;;;;;;;;27.50;99.90;;;;;;5033100;28;20074;-51
2022/10/14 03:09:59;;;;;;;;;;;27.50;99.90;;;;;;5033283;28;20368;-51
2022/10/14 03:12:25;;;;;;;;;;;27.50;99.90;;;;;;5033154;28;19912;-51
2022/10/14 03:14:50;;;;;;;;;;;27.50;99.90;;;;;;5033121;28;19913;-51
2022/10/14 03:17:16;;;;;;;;;;;27.50;99.90;;;;;;5033146;28;19959;-51
2022/10/14 03:19:42;;;;;;;;;;;27.40;99.90;;;;;;5032983;28;19987;-50
2022/10/14 03:22:07;;;;;;;;;;;27.50;99.90;;;;;;5032991;28;19916;-51
2022/10/14 03:24:33;;;;;;;;;;;27.40;99.90;;;;;;5032878;28;19912;-51
2022/10/14 03:26:59;;;;;;;;;;;27.40;99.90;;;;;;5032972;28;19909;-50
2022/10/14 03:29:24;;;;;;;;;;;27.50;99.90;;;;;;5033050;28;19905;-51
2022/10/14 03:31:50;;;;;;;;;;;27.40;99.90;;;;;;5032754;28;20229;-51
2022/10/14 03:34:16;;;;;;;;;;;27.40;99.90;;;;;;5032860;28;19921;-51
2022/10/14 03:36:41;;;;;;;;;;;27.40;99.90;;;;;;5032493;28;20364;-51
2022/10/14 03:39:08;;;;;;;;;;;27.40;99.90;;;;;;5032543;28;19912;-51
2022/10/14 03:41:34;;;;;;;;;;;27.40;99.90;;;;;;5032778;28;19912;-52
2022/10/14 03:43:59;;;;;;;;;;;27.40;99.90;;;;;;5031221;28;19905;-51
2022/10/14 03:46:25;;;;;;;;;;;27.40;99.90;;;;;;5032470;28;19991;-51
2022/10/14 03:48:51;;;;;;;;;;;27.40;99.90;;;;;;5032227;28;19905;-51
2022/10/14 03:51:16;;;;;;;;;;;27.30;99.90;;;;;;5032478;28;19905;-50
2022/10/14 03:53:42;;;;;;;;;;;27.30;99.90;;;;;;5032157;28;19912;-50
2022/10/14 03:56:08;;;;;;;;;;;27.30;99.90;;;;;;5032119;28;19912;-51
2022/10/14 03:58:33;;;;;;;;;;;27.30;99.90;;;;;;5032270;28;19920;-50
2022/10/14 04:00:59;;;;;;;;;;;27.30;99.90;;;;;;5033211;28;20310;-50
2022/10/14 04:03:24;;;;;;;;;;;27.30;99.90;;;;;;5032200;28;19905;-50
2022/10/14 04:05:50;;;;;;;;;;;27.30;99.90;;;;;;5032094;28;19988;-50
2022/10/14 04:08:16;;;;;;;;;;;27.30;99.90;;;;;;5030797;28;19909;-51
2022/10/14 04:10:41;;;;;;;;;;;27.30;99.90;;;;;;5031989;28;19905;-50
2022/10/14 04:13:07;;;;;;;;;;;27.30;99.90;;;;;;5031759;28;19905;-51
2022/10/14 04:15:34;;;;;;;;;;;27.20;99.90;;;;;;5031081;28;19909;-50
2022/10/14 04:18:00;;;;;;;;;;;27.30;99.90;;;;;;5031769;28;20007;-55
2022/10/14 04:20:25;;;;;;;;;;;27.20;99.90;;;;;;5031640;28;19943;-51
2022/10/14 04:22:51;;;;;;;;;;;27.20;99.90;;;;;;5030712;28;20245;-52
2022/10/14 04:25:16;;;;;;;;;;;27.20;99.90;;;;;;5014295;28;19905;-52
2022/10/14 04:27:42;;;;;;;;;;;27.20;99.90;;;;;;5031780;28;19908;-52
2022/10/14 04:30:08;;;;;;;;;;;27.20;99.90;;;;;;5031915;28;20327;-52
2022/10/14 04:32:34;;;;;;;;;;;27.20;99.90;;;;;;5046997;28;20364;-52
2022/10/14 04:34:59;;;;;;;;;;;27.20;99.90;;;;;;5031722;28;19951;-52
2022/10/14 04:37:25;;;;;;;;;;;27.20;99.90;;;;;;5031658;28;19913;-52
2022/10/14 04:39:51;;;;;;;;;;;27.20;99.90;;;;;;5031694;28;19909;-52
2022/10/14 04:42:16;;;;;;;;;;;27.10;99.90;;;;;;5031709;28;20376;-52
2022/10/14 04:44:42;;;;;;;;;;;27.10;99.90;;;;;;5031830;28;20340;-52
2022/10/14 04:47:07;;;;;;;;;;;27.10;99.90;;;;;;5031421;28;19980;-52
2022/10/14 04:49:33;;;;;;;;;;;27.10;99.90;;;;;;5031361;28;19912;-52
2022/10/14 04:51:58;;;;;;;;;;;27.10;99.90;;;;;;5031629;28;19909;-52
2022/10/14 04:54:25;;;;;;;;;;;27.10;99.90;;;;;;5031443;28;19950;-52
2022/10/14 04:56:50;;;;;;;;;;;27.00;99.90;;;;;;5031450;28;19991;-52
2022/10/14 04:59:16;;;;;;;;;;;27.00;99.90;;;;;;5031304;28;19912;-52
2022/10/14 05:01:41;;;;;;;;;;;27.00;99.90;;;;;;5031066;28;19917;-50
2022/10/14 05:04:07;;;;;;;;;;;27.00;99.90;;;;;;5031395;28;19909;-51
2022/10/14 05:06:33;;;;;;;;;;;27.00;99.90;;;;;;5031254;28;20376;-51
2022/10/14 05:08:59;;;;;;;;;;;27.00;99.90;;;;;;5031351;28;20011;-51
2022/10/14 05:11:24;;;;;;;;;;;27.00;99.90;;;;;;5030163;28;19947;-50
2022/10/14 05:13:50;;;;;;;;;;;27.00;99.90;;;;;;5031474;28;20321;-51
2022/10/14 05:16:16;;;;;;;;;;;27.00;99.90;;;;;;5031049;28;20415;-50
2022/10/14 05:18:41;;;;;;;;;;;27.00;99.90;;;;;;5031267;28;19987;-50
2022/10/14 05:21:07;;;;;;;;;;;27.00;99.90;;;;;;5031244;28;20000;-50
2022/10/14 05:23:32;;;;;;;;;;;26.90;99.90;;;;;;5031282;28;19909;-51
2022/10/14 05:25:58;;;;;;;;;;;26.90;99.90;;;;;;5031059;28;19905;-51
2022/10/14 05:28:25;;;;;;;;;;;26.90;99.90;;;;;;5034453;28;19951;-51
2022/10/14 05:30:50;;;;;;;;;;;26.90;99.90;;;;;;5035126;28;19912;-50
2022/10/14 05:33:16;;;;;;;;;;;26.90;99.90;;;;;;5035141;28;19905;-51
2022/10/14 05:35:42;;;;;;;;;;;26.90;99.90;;;;;;5034824;28;20415;-50
2022/10/14 05:38:07;;;;;;;;;;;26.90;99.90;;;;;;5034930;28;20310;-51
2022/10/14 05:40:33;;;;;;;;;;;26.90;99.90;;;;;;5034716;28;19912;-50
2022/10/14 05:42:59;;;;;;;;;;;26.90;99.90;;;;;;5034621;28;20051;-50
2022/10/14 05:45:25;;;;;;;;;;;26.80;99.90;;;;;;5034941;28;19905;-50
2022/10/14 05:47:51;;;;;;;;;;;26.80;99.90;;;;;;5034815;28;19958;-51
2022/10/14 05:50:17;;;;;;;;;;;26.80;99.90;;;;;;5034650;28;19909;-49
2022/10/14 05:52:43;;;;;;;;;;;26.80;99.90;;;;;;5034691;28;19909;-51
2022/10/14 05:55:08;;;;;;;;;;;26.80;99.90;;;;;;5034582;28;19975;-51
2022/10/14 05:57:34;;;;;;;;;;;26.80;99.90;;;;;;5034551;28;19909;-51
2022/10/14 06:00:00;;;;;;;;;;;26.80;99.90;;;;;;5034448;28;19960;-49
2022/10/14 06:02:25;;;;;;;;;;;26.70;99.90;;;;;;5033162;28;19954;-51
2022/10/14 06:04:51;;;;;;;;;;;26.80;99.90;;;;;;5049712;28;19944;-51
2022/10/14 06:07:16;;;;;;;;;;;26.80;99.90;;;;;;5034405;28;19909;-51
2022/10/14 06:09:42;;;;;;;;;;;26.70;99.90;;;;;;5034409;28;19905;-51
2022/10/14 06:12:08;;;;;;;;;;;26.70;99.90;;;;;;5034336;28;19905;-50
2022/10/14 06:14:34;;;;;;;;;;;26.70;99.90;;;;;;5034258;28;20295;-51
2022/10/14 06:16:59;;;;;;;;;;;26.70;99.90;;;;;;5032739;28;20016;-51
2022/10/14 06:19:25;;;;;;;;;;;26.70;99.90;;;;;;5034371;28;19959;-51
2022/10/14 06:21:51;;;;;;;;;;;26.70;99.90;;;;;;5033979;28;19912;-51
2022/10/14 06:24:16;;;;;;;;;;;26.70;99.90;;;;;;5034065;28;19966;-51
2022/10/14 06:26:42;;;;;;;;;;;26.70;99.90;;;;;;5032746;28;19905;-51
2022/10/14 06:29:08;;;;;;;;;;;26.70;99.90;;;;;;5033899;28;20360;-50
2022/10/14 06:31:33;;;;;;;;;;;26.70;99.90;;;;;;5033977;28;20382;-50
2022/10/14 06:33:59;;;;;;;;;;;26.60;99.90;;;;;;5033919;28;19905;-50
2022/10/14 06:36:25;;;;;;;;;;;26.60;99.90;;;;;;5033857;28;19913;-50
2022/10/14 06:38:51;;;;;;;;;;;26.60;99.90;;;;;;5032912;28;19906;-50
2022/10/14 06:41:16;;;;;;;;;;;26.60;99.90;;;;;;5033718;28;19912;-51
2022/10/14 06:43:42;;;;;;;;;;;26.60;99.90;;;;;;5033444;28;20297;-50
2022/10/14 06:46:08;;;;;;;;;;;26.60;99.90;;;;;;5033672;28;19905;-51
2022/10/14 06:48:33;;;;;;;;;;;26.60;99.90;;;;;;5033561;28;19909;-50
2022/10/14 06:50:59;;;;;;;;;;;26.60;99.90;;;;;;5033666;28;19913;-50
2022/10/14 06:53:25;;;;;;;;;;;26.60;99.90;;;;;;5032558;28;19912;-51
2022/10/14 06:56:01;;;;;;;;;;;26.60;99.90;;;;;;5033340;28;19913;-49
2022/10/14 06:58:27;;;;;;;;;;;26.60;99.90;;;;;;5048849;28;20313;-49
2022/10/14 07:00:53;;;;;;;;;;;26.60;99.90;;;;;;5032980;28;19967;-49
2022/10/14 07:03:18;;;;;;;;;;;26.60;99.90;;;;;;5033210;28;19916;-49
2022/10/14 07:05:44;;;;;;;;;;;26.60;99.90;;;;;;5033209;28;19905;-49
2022/10/14 07:08:10;;;;;;;;;;;26.60;99.90;;;;;;5033092;28;20352;-49
2022/10/14 07:10:36;;;;;;;;;;;26.60;99.90;;;;;;5033063;28;19912;-50
2022/10/14 07:13:01;;;;;;;;;;;26.60;99.90;;;;;;5033071;28;20221;-49
2022/10/14 07:15:27;;;;;;;;;;;26.60;99.90;;;;;;5033270;28;20335;-50
2022/10/14 07:17:53;;;;;;;;;;;26.60;99.90;;;;;;5031407;28;19909;-49
2022/10/14 07:20:18;;;;;;;;;;;26.60;99.90;;;;;;5032768;28;19939;-49
2022/10/14 07:22:44;;;;;;;;;;;26.60;99.90;;;;;;5032858;28;19944;-50
2022/10/14 07:25:10;;;;;;;;;;;26.60;99.90;;;;;;5032604;28;19912;-49
2022/10/14 07:27:35;;;;;;;;;;;26.70;99.90;;;;;;5032800;28;19913;-49
2022/10/14 07:30:01;;;;;;;;;;;26.70;99.90;;;;;;5032866;28;20069;-49
2022/10/14 07:32:27;;;;;;;;;;;26.70;99.90;;;;;;5032842;28;19912;-49
2022/10/14 07:34:52;;;;;;;;;;;26.70;99.90;;;;;;5032525;28;19911;-49
2022/10/14 07:37:18;;;;;;;;;;;26.70;99.90;;;;;;5032403;28;19936;-49
2022/10/14 07:39:44;;;;;;;;;;;26.70;99.90;;;;;;5032404;28;19905;-49
2022/10/14 07:42:09;;;;;;;;;;;26.70;99.90;;;;;;5032547;28;19932;-50
2022/10/14 07:44:38;;;;;;;;;;;26.80;99.90;;;;;;5032333;28;20150;-49
2022/10/14 07:47:04;;;;;;;;;;;26.80;99.90;;;;;;5032354;28;20447;-49
2022/10/14 07:49:30;;;;;;;;;;;26.80;99.90;;;;;;5032584;28;19916;-49
2022/10/14 07:51:55;;;;;;;;;;;26.80;99.90;;;;;;5032167;28;19981;-50
2022/10/14 07:54:23;;;;;;;;;;;26.80;99.90;;;;;;5032190;28;19951;-49
2022/10/14 07:56:49;;;;;;;;;;;26.80;99.90;;;;;;5032204;28;19917;-49
2022/10/14 07:59:15;;;;;;;;;;;26.80;99.90;;;;;;5032239;28;19959;-49
2022/10/14 08:01:41;;;;;;;;;;;26.90;99.90;;;;;;5031987;28;19967;-49
2022/10/14 08:04:09;;;;;;;;;;;26.90;99.90;;;;;;5032098;28;20191;-50
2022/10/14 08:06:34;;;;;;;;;;;26.90;99.90;;;;;;5032171;28;19912;-49
2022/10/14 08:09:02;;;;;;;;;;;26.90;99.90;;;;;;5030899;28;20249;-49
2022/10/14 08:11:28;;;;;;;;;;;26.90;99.90;;;;;;5032097;28;20311;-50
2022/10/14 08:13:54;;;;;;;;;;;27.00;99.90;;;;;;5031899;28;20003;-49
2022/10/14 08:16:22;;;;;;;;;;;27.00;99.90;;;;;;5031976;28;19909;-49
2022/10/14 08:18:47;;;;;;;;;;;27.00;99.90;;;;;;5031788;28;19912;-50
2022/10/14 08:21:14;;;;;;;;;;;27.00;99.90;;;;;;5031706;28;19905;-49
2022/10/14 08:23:39;;;;;;;;;;;27.00;99.90;;;;;;5031801;28;19908;-50
2022/10/14 08:26:15;;;;;;;;;;;27.00;99.90;;;;;;5031679;28;19996;-50
2022/10/14 08:28:40;;;;;;;;;;;27.00;99.90;;;;;;5031655;28;19912;-50
2022/10/14 08:31:06;;;;;;;;;;;27.10;99.90;;;;;;5031667;28;19905;-50
2022/10/14 08:33:31;;;;;;;;;;;27.10;99.90;;;;;;5031702;28;20357;-50
2022/10/14 08:35:57;;;;;;;;;;;27.10;99.90;;;;;;5046907;28;19919;-50
2022/10/14 08:38:25;;;;;;;;;;;27.10;99.90;;;;;;5031426;28;20329;-49
2022/10/14 08:41:09;;;;;;;;;;;27.10;99.90;;;;;;5031390;28;20352;-50
2022/10/14 08:43:40;;;;;;;;;;;27.10;99.90;;;;;;5031662;28;19912;-50
2022/10/14 08:46:11;;;;;;;;;;;27.20;99.90;;;;;;5031404;28;19905;-50
2022/10/14 08:48:37;;;;;;;;;;;27.20;99.90;;;;;;5031449;28;20361;-50
2022/10/14 08:51:12;;;;;;;;;;;27.20;99.90;;;;;;5031517;28;19913;-50
2022/10/14 08:53:44;;;;;;;;;;;27.20;99.90;;;;;;5031257;28;19905;-50
2022/10/14 08:56:10;;;;;;;;;;;27.20;99.90;;;;;;5031247;28;20326;-50
2022/10/14 08:58:40;;;;;;;;;;;27.20;99.90;;;;;;5031283;28;19955;-50
2022/10/14 09:01:25;;;;;;;;;;;27.20;99.90;;;;;;5031298;28;20376;-50
2022/10/14 09:03:52;;;;;;;;;;;27.30;99.90;;;;;;5037621;28;19912;-54
2022/10/14 09:06:23;;;;;;;;;;;27.30;99.90;;;;;;5037990;28;19959;-50
2022/10/14 09:08:50;;;;;;;;;;;27.30;99.90;;;;;;5037686;28;19909;-50
2022/10/14 09:11:17;;;;;;;;;;;27.30;99.90;;;;;;5036215;28;19954;-50
2022/10/14 09:13:45;;;;;;;;;;;27.30;99.90;;;;;;5037703;28;20287;-50
2022/10/14 09:16:16;;;;;;;;;;;27.30;99.90;;;;;;5037567;28;19913;-50
2022/10/14 09:19:01;;;;;;;;;;;27.30;99.90;;;;;;5037394;28;19905;-50
2022/10/14 09:21:32;;;;;;;;;;;27.40;99.90;;;;;;5037589;28;19909;-51
2022/10/14 09:24:08;;;;;;;;;;;27.40;99.90;;;;;;5037568;28;19909;-50
2022/10/14 09:26:41;;;;;;;;;;;27.40;99.90;;;;;;5037867;28;19912;-50
2022/10/14 09:29:26;;;;;;;;;;;27.40;99.90;;;;;;5037708;28;19951;-50
2022/10/14 09:31:54;;;;;;;;;;;27.50;99.90;;;;;;5037393;28;20256;-50
2022/10/14 09:34:25;;;;;;;;;;;27.40;99.90;;;;;;5037591;28;19916;-50
2022/10/14 09:36:52;;;;;;;;;;;27.50;99.90;;;;;;5037494;28;19913;-50
2022/10/14 09:39:17;;;;;;;;;;;27.50;99.90;;;;;;5037535;28;19909;-50
2022/10/14 09:41:45;;;;;;;;;;;27.50;99.90;;;;;;5037528;28;19917;-50
2022/10/14 09:44:24;;;;;;;;;;;27.60;99.90;;;;;;5037529;28;19959;-50
2022/10/14 09:47:02;;;;;;;;;;;27.60;99.90;;;;;;5036114;28;20431;-50
2022/10/14 09:49:32;;;;;;;;;;;27.60;99.90;;;;;;5037598;28;19912;-50
2022/10/14 09:51:58;;;;;;;;;;;27.60;99.90;;;;;;5037231;28;20075;-50
2022/10/14 09:54:25;;;;;;;;;;;27.70;99.90;;;;;;5037416;28;20246;-50
2022/10/14 09:56:57;;;;;;;;;;;27.70;99.90;;;;;;5037333;28;19913;-50
2022/10/14 09:59:23;;;;;;;;;;;27.70;99.90;;;;;;5037639;28;20221;-50
2022/10/14 10:01:50;;;;;;;;;;;27.80;99.90;;;;;;5037233;28;19920;-50
2022/10/14 10:04:30;;;;;;;;;;;27.80;99.90;;;;;;5037144;28;19927;-50
2022/10/14 10:06:58;;;;;;;;;;;27.80;99.90;;;;;;5037073;28;19949;-49
2022/10/14 10:09:24;;;;;;;;;;;27.80;99.90;;;;;;5037017;28;19905;-50
2022/10/14 10:11:49;;;;;;;;;;;27.90;99.90;;;;;;5036900;28;19916;-49
2022/10/14 10:14:15;;;;;;;;;;;27.90;99.90;;;;;;5033633;28;19905;-50
2022/10/14 10:16:41;;;;;;;;;;;27.90;99.90;;;;;;5033748;28;20008;-50
2022/10/14 10:19:25;;;;;;;;;;;27.90;99.90;;;;;;5034242;28;19945;-50
2022/10/14 10:21:51;;;;;;;;;;;28.00;99.90;;;;;;5033941;28;19959;-50
2022/10/14 10:24:20;;;;;;;;;;;28.00;99.90;;;;;;5033976;28;19905;-50
2022/10/14 10:26:46;;;;;;;;;;;28.00;99.90;;;;;;5033893;28;20242;-50
2022/10/14 10:29:22;;;;;;;;;;;28.10;99.90;;;;;;5032335;28;19920;-50
2022/10/14 10:32:00;;;;;;;;;;;28.10;99.90;;;;;;5033724;28;19905;-50
2022/10/14 10:34:26;;;;;;;;;;;28.10;99.90;;;;;;5033560;28;20264;-50
2022/10/14 10:36:56;;;;;;;;;;;28.20;99.90;;;;;;5033406;28;19917;-50
2022/10/14 10:39:33;;;;;;;;;;;28.20;99.90;;;;;;5033742;28;20158;-50
2022/10/14 10:42:02;;;;;;;;;;;28.20;99.90;;;;;;5033823;28;19905;-50
2022/10/14 10:44:35;;;;;;;;;;;28.30;99.90;;;;;;5033550;28;20347;-50
2022/10/14 10:47:13;;;;;;;;;;;28.30;99.90;;;;;;5033824;28;19991;-49
2022/10/14 10:50:03;;;;;;;;;;;28.30;99.90;;;;;;5033782;28;19909;-50
2022/10/14 10:52:44;;;;;;;;;;;28.40;99.90;;;;;;5023338;28;19909;-50
2022/10/14 10:55:30;;;;;;;;;;;28.40;99.90;;;;;;5033593;28;19945;-50
2022/10/14 10:58:26;;;;;;;;;;;28.50;99.90;;;;;;5033210;28;19913;-50
2022/10/14 11:00:52;;;;;;;;;;;28.50;99.90;;;;;;5032963;28;19916;-50
2022/10/14 11:03:21;;;;;;;;;;;28.50;99.90;;;;;;5033045;28;19951;-50
2022/10/14 11:05:51;;;;;;;;;;;28.60;99.90;;;;;;5033236;28;19912;-50
2022/10/14 11:14:45;;;;;;;;;;;28.60;99.90;;;;;;5033166;28;20368;-50
2022/10/14 11:17:19;;;;;;;;;;;28.70;99.90;;;;;;5010093;28;19931;-50
2022/10/14 11:19:48;;;;;;;;;;;28.80;99.90;;;;;;5032850;28;20015;-50
2022/10/14 11:22:37;;;;;;;;;;;28.80;99.90;;;;;;5032710;28;19944;-50
2022/10/14 11:25:21;;;;;;;;;;;28.80;99.90;;;;;;5022101;28;19904;-49
2022/10/14 11:27:51;;;;;;;;;;;28.80;99.90;;;;;;5032755;28;20205;-50
2022/10/14 11:30:16;;;;;;;;;;;28.80;99.90;;;;;;5032646;28;19951;-50
2022/10/14 11:32:48;;;;;;;;;;;28.80;99.90;;;;;;5032972;28;19905;-50
2022/10/14 11:35:16;;;;;;;;;;;28.90;99.90;;;;;;5032757;28;19940;-50
2022/10/14 11:37:57;;;;;;;;;;;28.90;99.90;;;;;;5032500;28;20020;-51
2022/10/14 11:40:25;;;;;;;;;;;29.00;99.90;;;;;;5032435;28;19916;-50
2022/10/14 11:42:54;;;;;;;;;;;29.00;99.90;;;;;;5032577;28;19905;-50
2022/10/14 11:45:20;;;;;;;;;;;29.00;99.90;;;;;;5032472;28;19905;-51
2022/10/14 11:47:47;;;;;;;;;;;29.00;99.90;;;;;;5032427;28;19912;-51
2022/10/14 11:50:22;;;;;;;;;;;29.10;99.90;;;;;;5032705;28;19989;-51
2022/10/14 11:52:52;;;;;;;;;;;29.10;99.90;;;;;;5032178;28;19916;-51
2022/10/14 11:55:22;;;;;;;;;;;29.10;99.90;;;;;;5032293;28;20007;-51
2022/10/14 11:57:48;;;;;;;;;;;29.20;99.90;;;;;;5032249;28;20288;-50
2022/10/14 12:00:17;;;;;;;;;;;29.20;99.90;;;;;;5032278;28;19924;-51
2022/10/14 12:02:49;;;;;;;;;;;29.20;99.90;;;;;;5032314;28;20348;-51
2022/10/14 12:05:27;;;;;;;;;;;29.20;99.90;;;;;;5032420;28;20340;-51
2022/10/14 12:07:52;;;;;;;;;;;29.20;99.90;;;;;;5032121;28;19959;-50
2022/10/14 12:10:41;;;;;;;;;;;29.30;99.90;;;;;;5032043;28;19959;-51
2022/10/14 12:13:14;;;;;;;;;;;29.30;99.90;;;;;;5025052;28;19909;-51
2022/10/14 12:15:43;;;;;;;;;;;29.30;99.90;;;;;;5031772;28;20000;-51
2022/10/14 12:18:10;;;;;;;;;;;29.40;99.90;;;;;;5031926;28;20031;-51
2022/10/14 12:20:35;;;;;;;;;;;29.40;99.90;;;;;;5031839;28;19905;-51
2022/10/14 12:23:02;;;;;;;;;;;29.40;99.90;;;;;;5031829;28;19958;-51
2022/10/14 12:25:32;;;;;;;;;;;29.40;99.90;;;;;;5031802;28;19905;-50
2022/10/14 12:27:58;;;;;;;;;;;29.40;99.90;;;;;;5031784;28;20319;-51
2022/10/14 12:30:29;;;;;;;;;;;29.50;99.90;;;;;;5046946;28;19905;-51
2022/10/14 12:33:03;;;;;;;;;;;29.50;99.90;;;;;;5031958;28;19916;-51
2022/10/14 12:35:52;;;;;;;;;;;29.50;99.90;;;;;;5030247;28;19912;-51
2022/10/14 12:38:18;;;;;;;;;;;29.50;99.90;;;;;;5030983;28;19909;-51
2022/10/14 12:40:44;;;;;;;;;;;29.60;99.90;;;;;;5031677;28;19905;-51
2022/10/14 12:43:12;;;;;;;;;;;29.60;99.90;;;;;;5031543;28;20007;-51
2022/10/14 12:45:45;;;;;;;;;;;29.60;99.90;;;;;;5046818;28;19998;-51
2022/10/14 12:48:14;;;;;;;;;;;29.60;99.90;;;;;;5031356;28;19905;-51
2022/10/14 12:50:41;;;;;;;;;;;29.70;99.90;;;;;;5031409;28;19904;-51
2022/10/14 12:53:20;;;;;;;;;;;29.70;99.90;;;;;;5031430;28;19905;-51
2022/10/14 12:55:47;;;;;;;;;;;29.70;99.90;;;;;;5031360;28;19909;-50
2022/10/14 12:58:18;;;;;;;;;;;29.80;99.90;;;;;;5031397;28;19905;-51
2022/10/14 13:00:51;;;;;;;;;;;29.80;99.90;;;;;;5031066;28;20012;-51
2022/10/14 13:03:19;;;;;;;;;;;29.80;99.90;;;;;;5031267;28;19912;-51
2022/10/14 13:05:45;;;;;;;;;;;29.80;99.90;;;;;;5031372;28;19905;-51
2022/10/14 13:08:10;;;;;;;;;;;29.80;99.90;;;;;;5031068;28;19961;-50
2022/10/14 13:10:36;;;;;;;;;;;29.90;99.90;;;;;;5031153;28;19916;-51
2022/10/14 13:13:22;;;;;;;;;;;29.90;99.90;;;;;;5031073;28;20004;-50
2022/10/14 13:15:51;;;;;;;;;;;29.90;99.90;;;;;;5031357;28;19909;-51
2022/10/14 13:18:32;;;;;;;;;;;29.90;99.90;;;;;;5031345;28;19913;-51
2022/10/14 13:20:57;;;;;;;;;;;29.90;99.90;;;;;;5031104;28;19959;-51
2022/10/14 13:23:29;;;;;;;;;;;29.90;99.90;;;;;;5030969;28;19909;-51
2022/10/14 13:26:19;;;;;;;;;;;30.00;99.90;;;;;;5046259;28;19926;-51
2022/10/14 13:28:53;;;;;;;;;;;30.00;99.90;;;;;;5027941;28;20356;-51
2022/10/14 13:31:39;;;;;;;;;;;30.00;99.90;;;;;;5031430;28;19912;-50
2022/10/14 13:34:25;;;;;;;;;;;30.10;99.90;;;;;;5030695;28;19905;-51
2022/10/14 13:36:50;;;;;;;;;;;30.10;99.90;;;;;;5019506;28;19920;-51
2022/10/14 13:39:16;;;;;;;;;;;30.10;99.90;;;;;;5031151;28;20217;-51
2022/10/14 13:41:42;;;;;;;;;;;30.10;99.90;;;;;;5029598;28;19980;-51
2022/10/14 13:44:09;;;;;;;;;;;30.10;99.90;;;;;;5030950;28;19905;-50
2022/10/14 13:46:40;;;;;;;;;;;30.20;99.90;;;;;;5030855;28;19992;-51
2022/10/14 13:49:07;;;;;;;;;;;30.20;99.90;;;;;;5033552;28;19905;-51
2022/10/14 13:51:46;;;;;;;;;;;30.20;99.90;;;;;;5034863;28;19979;-51
2022/10/14 13:54:12;;;;;;;;;;;30.20;99.90;;;;;;5034691;28;19916;-49
2022/10/14 13:56:37;;;;;;;;;;;30.20;99.90;;;;;;5034419;28;20272;-50
2022/10/14 13:59:16;;;;;;;;;;;30.30;99.90;;;;;;5034423;28;19971;-49
2022/10/14 14:01:42;;;;;;;;;;;30.30;99.90;;;;;;5034368;28;20436;-50
2022/10/14 14:04:11;;;;;;;;;;;30.30;99.90;;;;;;5034434;28;20000;-51
2022/10/14 14:06:42;;;;;;;;;;;30.30;99.90;;;;;;5034303;28;20249;-51
2022/10/14 14:09:17;;;;;;;;;;;30.40;99.90;;;;;;5034189;28;19905;-51
2022/10/14 14:11:45;;;;;;;;;;;30.40;99.90;;;;;;5034110;28;19909;-51
2022/10/14 14:14:16;;;;;;;;;;;30.50;99.90;;;;;;5049396;28;19959;-50
2022/10/14 14:16:55;;;;;;;;;;;30.40;99.90;;;;;;5033867;28;19960;-50
2022/10/14 14:19:25;;;;;;;;;;;30.50;99.90;;;;;;5034342;28;19912;-50
2022/10/14 14:21:51;;;;;;;;;;;30.50;99.90;;;;;;5034357;28;19905;-50
2022/10/14 14:24:24;;;;;;;;;;;30.50;99.90;;;;;;5032821;28;20000;-53
2022/10/14 14:26:54;;;;;;;;;;;30.50;99.90;;;;;;5034148;28;20329;-50
2022/10/14 14:29:21;;;;;;;;;;;30.50;99.90;;;;;;5049317;28;19936;-50
2022/10/14 14:31:48;;;;;;;;;;;30.60;99.90;;;;;;5032422;28;19913;-49